createdAt,value
2018-09-01T00:01:12.179Z,101321.22
2018-09-01T00:03:40.216Z,101319.59
2018-09-01T00:06:08.310Z,101316.62
2018-09-01T00:08:36.348Z,101314.42
2018-09-01T00:11:04.398Z,101316.95
2018-09-01T00:13:32.446Z,101310.97
2018-09-01T00:16:00.495Z,101316.28
2018-09-01T00:18:28.547Z,101307.75
2018-09-01T00:20:56.579Z,101308.91
2018-09-01T00:23:24.644Z,101314.92
2018-09-01T00:25:52.683Z,101315.87
2018-09-01T00:28:20.751Z,101315.63
2018-09-01T00:30:48.805Z,101316.95
2018-09-01T00:33:16.929Z,101316.40
2018-09-01T00:35:44.947Z,101320.69
2018-09-01T00:38:18.324Z,101325.10
2018-09-01T00:40:46.375Z,101331.80
2018-09-01T00:43:14.415Z,101331.93
2018-09-01T00:45:42.462Z,101328.03
2018-09-01T00:48:10.498Z,101335.42
2018-09-01T00:50:38.543Z,101332.67
2018-09-01T00:53:06.596Z,101327.23
2018-09-01T00:55:34.640Z,101328.06
2018-09-01T00:58:03.160Z,101327.17
2018-09-01T01:00:31.204Z,101331.79
2018-09-01T01:02:59.235Z,101333.88
2018-09-01T01:05:27.272Z,101332.95
2018-09-01T01:07:55.316Z,101330.66
2018-09-01T01:10:23.392Z,101337.80
2018-09-01T01:12:51.440Z,101339.68
2018-09-01T01:15:19.894Z,101332.39
2018-09-01T01:17:47.942Z,101339.80
2018-09-01T01:20:15.979Z,101334.15
2018-09-01T01:22:44.031Z,101337.04
2018-09-01T01:25:12.102Z,101333.22
2018-09-01T01:27:40.155Z,101335.53
2018-09-01T01:30:08.202Z,101333.01
2018-09-01T01:32:36.555Z,101336.23
2018-09-01T01:35:04.956Z,101334.84
2018-09-01T01:37:34.761Z,101337.04
2018-09-01T01:40:03.688Z,101336.70
2018-09-01T01:42:31.747Z,101330.56
2018-09-01T01:44:59.783Z,101332.75
2018-09-01T01:47:27.822Z,101328.14
2018-09-01T01:49:55.911Z,101329.27
2018-09-01T01:52:24.034Z,101334.80
2018-09-01T01:54:52.071Z,101338.25
2018-09-01T01:57:20.128Z,101333.43
2018-09-01T01:59:48.195Z,101337.42
2018-09-01T02:02:16.219Z,101342.82
2018-09-01T02:04:44.280Z,101339.45
2018-09-01T02:07:12.318Z,101343.03
2018-09-01T02:09:40.392Z,101350.84
2018-09-01T02:12:08.421Z,101351.52
2018-09-01T02:14:36.572Z,101357.52
2018-09-01T02:17:04.611Z,101356.58
2018-09-01T02:19:32.668Z,101361.16
2018-09-01T02:22:00.707Z,101359.53
2018-09-01T02:24:28.823Z,101352.73
2018-09-01T02:26:56.848Z,101356.28
2018-09-01T02:29:24.903Z,101362.00
2018-09-01T02:31:52.960Z,101359.34
2018-09-01T02:34:20.992Z,101369.47
2018-09-01T02:36:49.008Z,101363.80
2018-09-01T02:39:17.032Z,101366.08
2018-09-01T02:41:45.075Z,101366.29
2018-09-01T02:44:13.098Z,101364.77
2018-09-01T02:46:41.137Z,101358.98
2018-09-01T02:49:09.187Z,101360.94
2018-09-01T02:51:37.227Z,101363.91
2018-09-01T02:54:05.271Z,101366.03
2018-09-01T02:56:33.331Z,101365.67
2018-09-01T02:59:01.372Z,101361.73
2018-09-01T03:01:34.677Z,101364.92
2018-09-01T03:04:02.706Z,101369.36
2018-09-01T03:06:42.082Z,101378.53
2018-09-01T03:09:10.150Z,101374.84
2018-09-01T03:11:38.201Z,101376.39
2018-09-01T03:14:06.304Z,101376.48
2018-09-01T03:16:34.447Z,101373.02
2018-09-01T03:19:02.503Z,101370.45
2018-09-01T03:21:30.600Z,101375.89
2018-09-01T03:23:58.671Z,101377.37
2018-09-01T03:26:26.698Z,101376.09
2018-09-01T03:28:54.743Z,101370.51
2018-09-01T03:31:22.791Z,101380.89
2018-09-01T03:33:50.849Z,101384.78
2018-09-01T03:36:18.902Z,101389.02
2018-09-01T03:38:46.932Z,101381.14
2018-09-01T03:41:14.989Z,101382.87
2018-09-01T03:43:43.136Z,101378.02
2018-09-01T03:46:11.310Z,101374.53
2018-09-01T03:48:39.728Z,101377.70
2018-09-01T03:51:07.763Z,101381.03
2018-09-01T03:53:35.871Z,101379.90
2018-09-01T03:56:03.925Z,101373.19
2018-09-01T03:58:32.007Z,101376.27
2018-09-01T04:01:00.051Z,101375.98
2018-09-01T04:03:28.063Z,101373.63
2018-09-01T04:05:56.330Z,101375.76
2018-09-01T04:08:24.395Z,101370.64
2018-09-01T04:10:52.458Z,101373.19
2018-09-01T04:13:20.500Z,101375.69
2018-09-01T04:15:48.681Z,101382.67
2018-09-01T04:18:16.711Z,101380.83
2018-09-01T04:20:44.788Z,101370.45
2018-09-01T04:23:12.842Z,101371.33
2018-09-01T04:25:40.899Z,101366.88
2018-09-01T04:28:08.983Z,101373.94
2018-09-01T04:30:37.068Z,101379.45
2018-09-01T04:33:05.378Z,101380.32
2018-09-01T04:35:33.419Z,101383.27
2018-09-01T04:38:01.492Z,101389.27
2018-09-01T04:40:29.592Z,101388.63
2018-09-01T04:42:57.676Z,101388.97
2018-09-01T04:45:25.723Z,101389.84
2018-09-01T04:47:53.780Z,101395.92
2018-09-01T04:50:21.878Z,101393.76
2018-09-01T04:52:49.992Z,101402.81
2018-09-01T04:55:18.035Z,101404.36
2018-09-01T04:57:46.090Z,101403.05
2018-09-01T05:00:19.603Z,101412.38
2018-09-01T05:02:47.641Z,101414.55
2018-09-01T05:05:15.679Z,101414.75
2018-09-01T05:07:43.883Z,101416.17
2018-09-01T05:10:11.983Z,101411.97
2018-09-01T05:12:40.092Z,101413.82
2018-09-01T05:15:10.260Z,101415.75
2018-09-01T05:17:38.310Z,101425.17
2018-09-01T05:20:06.420Z,101427.44
2018-09-01T05:22:34.467Z,101422.64
2018-09-01T05:25:02.607Z,101427.95
2018-09-01T05:27:31.148Z,101431.67
2018-09-01T05:29:59.196Z,101425.56
2018-09-01T05:32:27.291Z,101428.89
2018-09-01T05:34:55.366Z,101432.68
2018-09-01T05:39:57.796Z,101435.81
2018-09-01T05:42:25.890Z,101438.17
2018-09-01T05:44:53.930Z,101437.23
2018-09-01T05:47:21.976Z,101438.17
2018-09-01T05:49:50.028Z,101437.91
2018-09-01T05:52:18.106Z,101434.84
2018-09-01T05:54:46.168Z,101446.80
2018-09-01T05:57:14.227Z,101452.02
2018-09-01T05:59:42.258Z,101457.91
2018-09-01T06:02:10.324Z,101460.69
2018-09-01T06:04:38.359Z,101452.77
2018-09-01T06:07:06.453Z,101450.60
2018-09-01T06:09:34.480Z,101450.83
2018-09-01T06:12:02.541Z,101454.34
2018-09-01T06:14:30.591Z,101458.25
2018-09-01T06:16:58.632Z,101462.47
2018-09-01T06:19:26.679Z,101464.24
2018-09-01T06:21:54.699Z,101459.55
2018-09-01T06:24:22.837Z,101460.96
2018-09-01T06:26:50.875Z,101472.51
2018-09-01T06:29:19.787Z,101462.36
2018-09-01T06:31:52.804Z,101469.02
2018-09-01T06:34:20.985Z,101478.61
2018-09-01T06:36:49.744Z,101471.87
2018-09-01T06:39:17.860Z,101472.70
2018-09-01T06:41:45.920Z,101472.92
2018-09-01T06:44:13.968Z,101470.09
2018-09-01T06:46:42.127Z,101474.87
2018-09-01T06:49:10.195Z,101472.63
2018-09-01T06:51:38.269Z,101470.50
2018-09-01T06:54:06.418Z,101473.63
2018-09-01T06:56:34.452Z,101473.67
2018-09-01T06:59:02.535Z,101479.86
2018-09-01T07:01:30.568Z,101480.94
2018-09-01T07:03:58.648Z,101480.07
2018-09-01T07:06:26.700Z,101476.87
2018-09-01T07:08:54.789Z,101483.23
2018-09-01T07:11:22.799Z,101483.00
2018-09-01T07:13:50.892Z,101488.47
2018-09-01T07:16:18.924Z,101483.64
2018-09-01T07:18:47.005Z,101484.30
2018-09-01T07:21:15.081Z,101481.44
2018-09-01T07:23:43.140Z,101480.16
2018-09-01T07:26:11.199Z,101488.05
2018-09-01T07:28:39.259Z,101484.66
2018-09-01T07:31:07.732Z,101476.42
2018-09-01T07:33:35.429Z,101484.11
2018-09-01T07:36:03.470Z,101483.66
2018-09-01T07:38:31.614Z,101483.31
2018-09-01T07:40:59.642Z,101482.62
2018-09-01T07:43:27.714Z,101486.78
2018-09-01T07:45:55.747Z,101485.45
2018-09-01T07:48:23.799Z,101488.34
2018-09-01T07:50:51.895Z,101489.38
2018-09-01T07:53:19.952Z,101499.88
2018-09-01T07:55:47.986Z,101504.25
2018-09-01T07:58:16.116Z,101509.48
2018-09-01T08:00:44.196Z,101506.17
2018-09-01T08:03:13.309Z,101506.39
2018-09-01T08:05:41.373Z,101513.95
2018-09-01T08:08:09.390Z,101514.23
2018-09-01T08:10:37.423Z,101513.30
2018-09-01T08:13:06.180Z,101509.88
2018-09-01T08:15:34.231Z,101513.48
2018-09-01T08:18:02.283Z,101521.81
2018-09-01T08:20:30.331Z,101526.23
2018-09-01T08:22:58.480Z,101535.03
2018-09-01T08:25:26.583Z,101528.32
2018-09-01T08:27:54.655Z,101528.13
2018-09-01T08:30:22.972Z,101529.84
2018-09-01T08:32:51.778Z,101535.30
2018-09-01T08:35:19.872Z,101534.89
2018-09-01T08:37:47.921Z,101527.88
2018-09-01T08:40:16.114Z,101527.27
2018-09-01T08:42:44.162Z,101535.89
2018-09-01T08:45:12.292Z,101532.30
2018-09-01T08:47:40.309Z,101527.58
2018-09-01T08:50:08.421Z,101534.10
2018-09-01T08:52:36.519Z,101529.77
2018-09-01T08:55:04.637Z,101537.16
2018-09-01T08:57:32.701Z,101538.26
2018-09-01T09:00:00.809Z,101540.78
2018-09-01T09:02:28.843Z,101534.44
2018-09-01T09:04:56.917Z,101530.90
2018-09-01T09:07:24.961Z,101542.84
2018-09-01T09:09:53.027Z,101548.69
2018-09-01T09:12:21.067Z,101551.91
2018-09-01T09:14:49.122Z,101563.83
2018-09-01T09:17:17.171Z,101553.30
2018-09-01T09:19:45.286Z,101554.31
2018-09-01T09:22:13.435Z,101542.64
2018-09-01T09:24:41.532Z,101544.38
2018-09-01T09:27:09.643Z,101551.14
2018-09-01T09:29:37.734Z,101545.50
2018-09-01T09:32:05.838Z,101542.10
2018-09-01T09:34:34.043Z,101550.80
2018-09-01T09:37:02.463Z,101555.20
2018-09-01T09:39:30.780Z,101547.62
2018-09-01T09:41:58.914Z,101548.67
2018-09-01T09:44:27.064Z,101544.70
2018-09-01T09:46:55.124Z,101547.09
2018-09-01T09:49:23.295Z,101546.11
2018-09-01T09:51:51.336Z,101543.89
2018-09-01T09:54:19.401Z,101546.31
2018-09-01T09:56:47.472Z,101556.60
2018-09-01T09:59:15.644Z,101564.73
2018-09-01T10:01:43.786Z,101555.67
2018-09-01T10:04:12.636Z,101558.23
2018-09-01T10:06:41.010Z,101564.58
2018-09-01T10:09:11.964Z,101554.05
2018-09-01T10:11:40.732Z,101559.09
2018-09-01T10:14:08.754Z,101560.88
2018-09-01T10:16:36.796Z,101564.05
2018-09-01T10:19:04.918Z,101554.09
2018-09-01T10:21:33.132Z,101562.23
2018-09-01T10:24:01.184Z,101560.32
2018-09-01T10:26:29.304Z,101559.80
2018-09-01T10:28:57.354Z,101556.83
2018-09-01T10:31:25.463Z,101558.05
2018-09-01T10:33:53.771Z,101557.42
2018-09-01T10:36:21.828Z,101545.88
2018-09-01T10:38:49.931Z,101543.67
2018-09-01T10:41:18.083Z,101542.50
2018-09-01T10:43:46.190Z,101535.36
2018-09-01T10:46:14.256Z,101532.80
2018-09-01T10:48:42.999Z,101535.25
2018-09-01T10:51:11.076Z,101541.03
2018-09-01T10:53:39.201Z,101539.86
2018-09-01T10:56:07.405Z,101521.64
2018-09-01T10:58:35.447Z,101519.08
2018-09-01T11:01:03.495Z,101529.39
2018-09-01T11:03:31.558Z,101522.99
2018-09-01T11:06:03.525Z,101525.83
2018-09-01T11:08:31.863Z,101517.81
2018-09-01T11:10:59.907Z,101512.42
2018-09-01T11:13:28.006Z,101500.06
2018-09-01T11:15:56.115Z,101493.11
2018-09-01T11:18:24.160Z,101496.38
2018-09-01T11:20:52.326Z,101494.39
2018-09-01T11:23:20.319Z,101493.92
2018-09-01T11:25:48.420Z,101492.17
2018-09-01T11:28:16.471Z,101490.97
2018-09-01T11:30:44.525Z,101483.55
2018-09-01T11:33:12.760Z,101486.48
2018-09-01T11:35:40.823Z,101487.63
2018-09-01T11:38:09.000Z,101482.63
2018-09-01T11:40:37.020Z,101486.80
2018-09-01T11:43:05.298Z,101485.38
2018-09-01T11:45:33.155Z,101482.00
2018-09-01T11:48:01.214Z,101486.66
2018-09-01T11:50:29.292Z,101485.45
2018-09-01T11:52:57.327Z,101478.27
2018-09-01T11:55:25.359Z,101479.47
2018-09-01T11:57:53.409Z,101480.52
2018-09-01T12:00:21.527Z,101481.73
2018-09-01T12:02:49.800Z,101469.11
2018-09-01T12:05:17.898Z,101466.31
2018-09-01T12:07:45.963Z,101463.30
2018-09-01T12:10:14.089Z,101478.92
2018-09-01T12:12:42.156Z,101479.56
2018-09-01T12:15:10.167Z,101481.16
2018-09-01T12:17:38.207Z,101478.95
2018-09-01T12:20:06.308Z,101483.30
2018-09-01T12:22:34.376Z,101480.06
2018-09-01T12:25:02.427Z,101469.66
2018-09-01T12:27:30.471Z,101469.86
2018-09-01T12:29:58.507Z,101464.45
2018-09-01T12:32:26.564Z,101470.05
2018-09-01T12:34:54.695Z,101470.63
2018-09-01T12:37:22.774Z,101426.77
2018-09-01T12:39:50.799Z,101469.53
2018-09-01T12:42:19.042Z,101466.92
2018-09-01T12:44:47.097Z,101465.11
2018-09-01T12:47:15.182Z,101465.31
2018-09-01T12:49:43.247Z,101462.70
2018-09-01T12:52:11.310Z,101461.50
2018-09-01T12:54:39.366Z,101457.88
2018-09-01T12:57:07.418Z,101450.66
2018-09-01T12:59:35.463Z,101452.48
2018-09-01T13:02:03.804Z,101448.69
2018-09-01T13:04:31.853Z,101446.43
2018-09-01T13:06:59.903Z,101447.79
2018-09-01T13:09:27.957Z,101445.79
2018-09-01T13:11:56.006Z,101442.17
2018-09-01T13:14:24.248Z,101440.78
2018-09-01T13:16:52.779Z,101449.02
2018-09-01T13:19:20.840Z,101451.23
2018-09-01T13:21:48.913Z,101446.04
2018-09-01T13:24:16.997Z,101453.09
2018-09-01T13:26:45.054Z,101455.68
2018-09-01T13:29:13.086Z,101457.71
2018-09-01T13:31:41.191Z,101448.08
2018-09-01T13:34:09.385Z,101456.89
2018-09-01T13:36:37.507Z,101454.69
2018-09-01T13:39:06.998Z,101450.04
2018-09-01T13:41:34.968Z,101456.47
2018-09-01T13:44:03.044Z,101451.66
2018-09-01T13:46:31.147Z,101447.88
2018-09-01T13:48:59.212Z,101441.42
2018-09-01T13:51:27.326Z,101443.03
2018-09-01T13:53:55.375Z,101450.05
2018-09-01T13:56:23.543Z,101442.02
2018-09-01T13:58:51.624Z,101436.21
2018-09-01T14:01:19.727Z,101438.22
2018-09-01T14:03:47.827Z,101438.05
2018-09-01T14:06:15.885Z,101445.86
2018-09-01T14:08:44.038Z,101445.08
2018-09-01T14:11:12.111Z,101445.45
2018-09-01T14:13:40.144Z,101439.41
2018-09-01T14:16:08.180Z,101441.16
2018-09-01T14:18:36.281Z,101450.57
2018-09-01T14:21:04.362Z,101453.52
2018-09-01T14:23:32.371Z,101449.23
2018-09-01T14:26:00.414Z,101444.59
2018-09-01T14:28:28.475Z,101445.17
2018-09-01T14:30:56.528Z,101437.11
2018-09-01T14:33:24.612Z,101440.48
2018-09-01T14:35:52.767Z,101442.92
2018-09-01T14:38:20.988Z,101451.00
2018-09-01T14:40:49.125Z,101441.86
2018-09-01T14:43:17.274Z,101440.87
2018-09-01T14:45:45.332Z,101443.70
2018-09-01T14:48:13.380Z,101436.66
2018-09-01T14:50:41.452Z,101430.83
2018-09-01T14:53:10.220Z,101433.66
2018-09-01T14:55:38.273Z,101442.51
2018-09-01T14:58:06.336Z,101432.89
2018-09-01T15:00:34.457Z,101435.77
2018-09-01T15:03:03.615Z,101443.34
2018-09-01T15:05:31.917Z,101438.17
2018-09-01T15:08:00.360Z,101433.41
2018-09-01T15:10:28.620Z,101434.63
2018-09-01T15:12:56.928Z,101402.34
2018-09-01T15:15:25.135Z,101435.80
2018-09-01T15:17:54.395Z,101432.39
2018-09-01T15:20:22.999Z,101431.20
2018-09-01T15:22:52.578Z,101434.39
2018-09-01T15:25:20.990Z,101355.08
2018-09-01T15:27:49.312Z,101423.36
2018-09-01T15:30:17.714Z,101422.73
2018-09-01T15:32:46.552Z,101422.20
2018-09-01T15:35:15.005Z,101419.97
2018-09-01T15:37:43.052Z,101420.35
2018-09-01T15:40:11.236Z,101425.55
2018-09-01T15:42:39.305Z,101424.30
2018-09-01T15:45:07.402Z,101418.28
2018-09-01T15:47:35.580Z,101428.53
2018-09-01T15:50:03.684Z,101421.75
2018-09-01T15:52:31.736Z,101426.95
2018-09-01T15:54:59.771Z,101424.94
2018-09-01T15:57:27.805Z,101423.33
2018-09-01T15:59:55.985Z,101426.55
2018-09-01T16:02:24.003Z,101431.53
2018-09-01T16:04:52.065Z,101429.74
2018-09-01T16:07:20.122Z,101427.95
2018-09-01T16:09:49.556Z,101423.53
2018-09-01T16:12:17.623Z,101425.16
2018-09-01T16:14:45.685Z,101429.41
2018-09-01T16:17:13.731Z,101427.81
2018-09-01T16:19:41.807Z,101427.43
2018-09-01T16:22:09.946Z,101427.42
2018-09-01T16:24:38.040Z,101428.44
2018-09-01T16:27:06.063Z,101425.02
2018-09-01T16:29:34.091Z,101423.81
2018-09-01T16:32:02.342Z,101427.23
2018-09-01T16:34:30.412Z,101424.20
2018-09-01T16:36:58.412Z,101428.84
2018-09-01T16:39:26.912Z,101427.02
2018-09-01T16:41:54.964Z,101434.44
2018-09-01T16:44:23.020Z,101427.22
2018-09-01T16:46:51.050Z,101440.06
2018-09-01T16:49:19.122Z,101439.67
2018-09-01T16:51:47.232Z,101440.25
2018-09-01T16:54:15.300Z,101432.24
2018-09-01T16:56:43.384Z,101437.82
2018-09-01T16:59:11.443Z,101436.80
2018-09-01T17:01:39.471Z,101443.37
2018-09-01T17:04:07.674Z,101447.98
2018-09-01T17:06:35.700Z,101449.57
2018-09-01T17:09:04.249Z,101453.74
2018-09-01T17:11:32.315Z,101460.87
2018-09-01T17:14:00.341Z,101450.63
2018-09-01T17:16:28.411Z,101463.83
2018-09-01T17:18:56.436Z,101457.22
2018-09-01T17:21:24.496Z,101466.01
2018-09-01T17:23:52.552Z,101472.80
2018-09-01T17:26:20.675Z,101468.58
2018-09-01T17:28:48.723Z,101467.75
2018-09-01T17:31:16.785Z,101471.13
2018-09-01T17:33:44.898Z,101477.53
2018-09-01T17:36:12.895Z,101475.14
2018-09-01T17:38:41.033Z,101475.92
2018-09-01T17:41:09.139Z,101475.49
2018-09-01T17:43:37.175Z,101475.87
2018-09-01T17:46:05.617Z,101480.45
2018-09-01T17:48:33.927Z,101474.17
2018-09-01T17:51:01.997Z,101482.16
2018-09-01T17:53:30.048Z,101474.70
2018-09-01T17:55:58.105Z,101476.04
2018-09-01T17:58:26.145Z,101474.55
2018-09-01T18:00:54.231Z,101476.50
2018-09-01T18:03:22.526Z,101483.64
2018-09-01T18:05:50.653Z,101482.58
2018-09-01T18:08:18.692Z,101476.12
2018-09-01T18:10:46.760Z,101480.69
2018-09-01T18:13:14.820Z,101482.55
2018-09-01T18:15:42.866Z,101490.31
2018-09-01T18:18:10.896Z,101486.88
2018-09-01T18:20:41.257Z,101488.83
2018-09-01T18:23:09.457Z,101502.72
2018-09-01T18:25:37.443Z,101504.06
2018-09-01T18:28:05.590Z,101500.36
2018-09-01T18:30:33.629Z,101497.26
2018-09-01T18:33:01.686Z,101503.73
2018-09-01T18:35:29.752Z,101506.28
2018-09-01T18:37:58.573Z,101500.02
2018-09-01T18:40:26.668Z,101502.34
2018-09-01T18:42:54.762Z,101509.22
2018-09-01T18:45:23.775Z,101507.00
2018-09-01T18:47:51.832Z,101514.09
2018-09-01T18:50:19.912Z,101522.36
2018-09-01T18:52:47.995Z,101524.63
2018-09-01T18:55:16.933Z,101524.79
2018-09-01T18:57:44.995Z,101524.31
2018-09-01T19:00:14.535Z,101522.44
2018-09-01T19:02:42.672Z,101522.16
2018-09-01T19:05:10.788Z,101524.86
2018-09-01T19:07:38.878Z,101526.55
2018-09-01T19:10:08.167Z,101526.27
2018-09-01T19:12:36.225Z,101528.77
2018-09-01T19:15:05.424Z,101527.92
2018-09-01T19:17:33.468Z,101528.83
2018-09-01T19:20:01.573Z,101536.91
2018-09-01T19:22:29.818Z,101532.01
2018-09-01T19:24:57.917Z,101538.30
2018-09-01T19:27:25.963Z,101538.16
2018-09-01T19:29:55.769Z,101538.09
2018-09-01T19:32:23.982Z,101536.43
2018-09-01T19:34:52.014Z,101534.31
2018-09-01T19:37:20.079Z,101535.44
2018-09-01T19:39:48.125Z,101536.92
2018-09-01T19:42:16.315Z,101534.80
2018-09-01T19:44:44.568Z,101532.52
2018-09-01T19:47:12.561Z,101527.02
2018-09-01T19:49:40.726Z,101531.28
2018-09-01T19:52:08.829Z,101537.95
2018-09-01T19:54:37.480Z,101535.23
2018-09-01T19:57:06.109Z,101536.47
2018-09-01T19:59:34.212Z,101539.56
2018-09-01T20:02:03.133Z,101540.45
2018-09-01T20:04:32.532Z,101536.57
2018-09-01T20:07:00.676Z,101536.27
2018-09-01T20:09:30.188Z,101544.19
2018-09-01T20:11:58.267Z,101543.06
2018-09-01T20:14:26.324Z,101546.58
2018-09-01T20:16:54.985Z,101545.71
2018-09-01T20:19:23.764Z,101544.81
2018-09-01T20:21:51.848Z,101544.21
2018-09-01T20:24:19.907Z,101548.77
2018-09-01T20:26:47.979Z,101551.70
2018-09-01T20:29:16.132Z,101551.61
2018-09-01T20:31:44.365Z,101550.12
2018-09-01T20:34:12.431Z,101553.88
2018-09-01T20:36:40.529Z,101552.63
2018-09-01T20:39:09.581Z,101559.49
2018-09-01T20:41:37.743Z,101511.70
2018-09-01T20:44:05.901Z,101557.58
2018-09-01T20:46:34.093Z,101554.12
2018-09-01T20:49:02.483Z,101562.61
2018-09-01T20:51:30.720Z,101555.91
2018-09-01T20:54:00.237Z,101558.03
2018-09-01T20:56:29.108Z,101559.53
2018-09-01T20:59:06.836Z,101559.44
2018-09-01T21:01:36.401Z,101553.92
2018-09-01T21:04:05.111Z,101566.00
2018-09-01T21:06:34.352Z,101569.73
2018-09-01T21:09:02.962Z,101569.06
2018-09-01T21:11:31.007Z,101569.55
2018-09-01T21:13:59.044Z,101566.47
2018-09-01T21:16:27.143Z,101573.08
2018-09-01T21:18:55.128Z,101569.28
2018-09-01T21:21:23.181Z,101578.20
2018-09-01T21:23:51.255Z,101576.37
2018-09-01T21:26:19.351Z,101577.30
2018-09-01T21:28:47.482Z,101586.58
2018-09-01T21:31:15.537Z,101580.78
2018-09-01T21:33:43.605Z,101581.88
2018-09-01T21:36:11.879Z,101593.13
2018-09-01T21:38:40.006Z,101586.89
2018-09-01T21:41:08.158Z,101579.73
2018-09-01T21:43:36.219Z,101591.57
2018-09-01T21:46:04.249Z,101587.53
2018-09-01T21:48:32.291Z,101581.20
2018-09-01T21:51:00.331Z,101587.49
2018-09-01T21:53:28.420Z,101587.86
2018-09-01T21:55:56.459Z,101592.36
2018-09-01T21:58:24.505Z,101587.89
2018-09-01T22:00:52.708Z,101590.92
2018-09-01T22:03:21.883Z,101587.91
2018-09-01T22:05:49.944Z,101586.86
2018-09-01T22:08:18.019Z,101591.97
2018-09-01T22:10:46.152Z,101583.40
2018-09-01T22:13:14.261Z,101591.66
2018-09-01T22:15:42.312Z,101586.09
2018-09-01T22:18:10.416Z,101591.30
2018-09-01T22:20:38.477Z,101588.41
2018-09-01T22:23:06.547Z,101588.54
2018-09-01T22:25:34.630Z,101590.63
2018-09-01T22:28:02.785Z,101593.65
2018-09-01T22:30:30.889Z,101588.09
2018-09-01T22:32:58.956Z,101593.39
2018-09-01T22:35:27.007Z,101595.02
2018-09-01T22:37:55.094Z,101595.25
2018-09-01T22:40:24.192Z,101591.53
2018-09-01T22:42:52.247Z,101591.98
2018-09-01T22:45:20.310Z,101587.14
2018-09-01T22:47:48.387Z,101590.40
2018-09-01T22:50:16.450Z,101592.56
2018-09-01T22:52:44.515Z,101597.34
2018-09-01T22:55:12.602Z,101595.71
2018-09-01T22:57:40.773Z,101591.10
2018-09-01T23:00:08.731Z,101590.83
2018-09-01T23:02:36.803Z,101595.58
2018-09-01T23:05:04.868Z,101599.16
2018-09-01T23:07:33.003Z,101602.21
2018-09-01T23:10:01.118Z,101599.44
2018-09-01T23:12:29.148Z,101599.16
2018-09-01T23:14:57.219Z,101591.98
2018-09-01T23:17:25.281Z,101594.55
2018-09-01T23:19:53.387Z,101590.48
2018-09-01T23:22:21.513Z,101591.31
2018-09-01T23:24:49.623Z,101584.62
2018-09-01T23:27:17.836Z,101583.50
2018-09-01T23:29:45.884Z,101582.13
2018-09-01T23:32:13.954Z,101594.74
2018-09-01T23:34:42.027Z,101588.02
2018-09-01T23:37:10.239Z,101585.50
2018-09-01T23:39:38.324Z,101586.77
2018-09-01T23:42:06.364Z,101591.42
2018-09-01T23:44:34.415Z,101586.78
2018-09-01T23:47:02.721Z,101592.82
2018-09-01T23:49:30.763Z,101592.13
2018-09-01T23:51:58.832Z,101586.22
2018-09-01T23:54:26.890Z,101585.66
2018-09-01T23:56:54.987Z,101590.96
2018-09-01T23:59:23.099Z,101591.08
